createdAt,value
2023-11-03T00:00:10.101Z,6.25
2023-11-03T00:02:36.964Z,6.43
2023-11-03T00:05:06.103Z,6.30
2023-11-03T00:07:33.603Z,7.15
2023-11-03T00:10:01.446Z,7.22
2023-11-03T00:12:28.157Z,6.88
2023-11-03T00:14:54.717Z,7.37
2023-11-03T00:17:21.296Z,7.30
2023-11-03T00:19:48.149Z,7.00
2023-11-03T00:22:14.956Z,7.30
2023-11-03T00:24:42.123Z,6.65
2023-11-03T00:27:09.255Z,7.23
2023-11-03T00:29:35.980Z,7.15
2023-11-03T00:32:03.878Z,6.95
2023-11-03T00:34:30.684Z,7.13
2023-11-03T00:36:57.668Z,7.53
2023-11-03T00:39:24.229Z,7.37
2023-11-03T00:41:52.547Z,7.35
2023-11-03T00:44:20.060Z,7.40
2023-11-03T00:46:47.581Z,7.85
2023-11-03T00:49:14.818Z,7.10
2023-11-03T00:51:41.661Z,7.27
2023-11-03T00:54:10.588Z,6.80
2023-11-03T00:56:38.042Z,6.22
2023-11-03T00:59:04.930Z,7.28
2023-11-03T01:01:32.734Z,7.20
2023-11-03T01:03:59.393Z,6.37
2023-11-03T01:06:26.037Z,7.10
2023-11-03T01:08:52.675Z,6.78
2023-11-03T01:11:20.870Z,7.13
2023-11-03T01:13:47.492Z,7.05
2023-11-03T01:16:14.610Z,7.20
2023-11-03T01:18:42.091Z,7.05
2023-11-03T01:21:16.318Z,7.00
2023-11-03T01:23:44.234Z,7.28
2023-11-03T01:26:11.804Z,6.22
2023-11-03T01:28:38.787Z,7.07
2023-11-03T01:31:05.977Z,7.15
2023-11-03T01:33:33.215Z,6.90
2023-11-03T01:35:59.907Z,6.63
2023-11-03T01:38:26.477Z,7.22
2023-11-03T01:40:54.609Z,7.00
2023-11-03T01:43:21.651Z,7.05
2023-11-03T01:45:48.222Z,5.10
2023-11-03T01:48:15.052Z,6.85
2023-11-03T01:50:43.369Z,6.93
2023-11-03T01:53:11.477Z,6.80
2023-11-03T01:55:38.125Z,7.00
2023-11-03T01:58:05.275Z,6.70
2023-11-03T02:00:32.167Z,6.40
2023-11-03T02:02:58.796Z,6.50
2023-11-03T02:05:25.575Z,6.33
2023-11-03T02:07:52.262Z,6.60
2023-11-03T02:10:18.808Z,6.68
2023-11-03T02:12:45.527Z,6.25
2023-11-03T02:15:12.188Z,6.45
2023-11-03T02:17:40.366Z,6.13
2023-11-03T02:20:08.971Z,6.65
2023-11-03T02:22:35.844Z,6.28
2023-11-03T02:25:03.102Z,6.15
2023-11-03T02:27:29.941Z,6.45
2023-11-03T02:29:57.173Z,6.50
2023-11-03T02:32:24.041Z,5.93
2023-11-03T02:34:50.968Z,6.57
2023-11-03T02:37:17.580Z,6.15
2023-11-03T02:39:48.594Z,6.22
2023-11-03T02:42:17.035Z,6.33
2023-11-03T02:44:43.759Z,6.28
2023-11-03T02:47:10.310Z,6.60
2023-11-03T02:49:37.537Z,5.90
2023-11-03T02:52:04.527Z,6.20
2023-11-03T02:54:31.135Z,6.30
2023-11-03T02:56:57.733Z,6.00
2023-11-03T02:59:24.478Z,6.30
2023-11-03T03:01:51.139Z,6.22
2023-11-03T03:04:17.996Z,6.20
2023-11-03T03:06:46.882Z,6.63
2023-11-03T03:09:14.213Z,6.07
2023-11-03T03:11:41.496Z,6.53
2023-11-03T03:14:08.298Z,6.30
2023-11-03T03:16:34.892Z,6.25
2023-11-03T03:19:01.505Z,5.60
2023-11-03T03:21:28.076Z,6.47
2023-11-03T03:23:54.706Z,5.72
2023-11-03T03:26:21.315Z,7.00
2023-11-03T03:28:47.991Z,5.80
2023-11-03T03:31:14.685Z,5.83
2023-11-03T03:33:41.495Z,6.13
2023-11-03T03:36:09.274Z,5.90
2023-11-03T03:38:36.726Z,5.85
2023-11-03T03:41:03.406Z,5.60
2023-11-03T03:43:29.962Z,5.93
2023-11-03T03:45:56.567Z,6.05
2023-11-03T03:48:23.326Z,6.10
2023-11-03T03:50:49.869Z,5.70
2023-11-03T03:53:16.428Z,5.93
2023-11-03T03:55:43.179Z,5.67
2023-11-03T03:58:09.773Z,6.03
2023-11-03T04:00:36.508Z,5.40
2023-11-03T04:03:03.147Z,6.10
2023-11-03T04:05:29.722Z,5.68
2023-11-03T04:07:56.350Z,5.80
2023-11-03T04:10:22.948Z,5.55
2023-11-03T04:12:49.613Z,5.80
2023-11-03T04:15:16.203Z,5.63
2023-11-03T04:17:42.807Z,5.75
2023-11-03T04:20:09.831Z,5.73
2023-11-03T04:22:37.265Z,5.20
2023-11-03T04:25:04.237Z,5.25
2023-11-03T04:27:30.775Z,5.55
2023-11-03T04:29:57.332Z,5.13
2023-11-03T04:32:24.119Z,5.47
2023-11-03T04:34:50.822Z,5.30
2023-11-03T04:37:17.413Z,5.20
2023-11-03T04:39:43.953Z,5.03
2023-11-03T04:42:10.528Z,5.13
2023-11-03T04:44:37.186Z,5.20
2023-11-03T04:47:03.875Z,4.97
2023-11-03T04:49:31.655Z,5.00
2023-11-03T04:51:58.441Z,4.90
2023-11-03T04:54:25.098Z,5.35
2023-11-03T04:56:51.693Z,4.60
2023-11-03T04:59:18.459Z,4.70
2023-11-03T05:01:45.786Z,4.85
2023-11-03T05:04:12.325Z,4.70
2023-11-03T05:06:39.004Z,4.68
2023-11-03T05:09:07.462Z,3.97
2023-11-03T05:11:34.052Z,4.03
2023-11-03T05:14:00.673Z,4.03
2023-11-03T05:16:27.265Z,4.03
2023-11-03T05:18:53.797Z,3.58
2023-11-03T05:21:20.419Z,3.80
2023-11-03T05:23:47.031Z,3.65
2023-11-03T05:26:14.646Z,3.60
2023-11-03T05:28:42.170Z,3.40
2023-11-03T05:31:08.951Z,3.53
2023-11-03T05:33:35.699Z,3.37
2023-11-03T05:36:02.373Z,3.40
2023-11-03T05:38:29.000Z,3.00
2023-11-03T05:40:55.531Z,2.90
2023-11-03T05:43:22.312Z,2.20
2023-11-03T05:45:49.019Z,2.77
2023-11-03T05:48:15.673Z,1.80
2023-11-03T05:50:42.397Z,2.17
2023-11-03T05:53:09.289Z,2.00
2023-11-03T05:55:35.834Z,2.22
2023-11-03T05:58:02.540Z,2.00
2023-11-03T06:00:30.619Z,1.63
2023-11-03T06:02:57.643Z,1.48
2023-11-03T06:05:24.288Z,1.50
2023-11-03T06:07:50.789Z,1.60
2023-11-03T06:10:17.431Z,1.50
2023-11-03T06:12:44.064Z,1.40
2023-11-03T06:15:10.779Z,1.40
2023-11-03T06:17:37.358Z,1.10
2023-11-03T06:20:04.560Z,1.33
2023-11-03T06:22:31.198Z,1.30
2023-11-03T06:24:57.851Z,1.20
2023-11-03T06:27:24.507Z,1.42
2023-11-03T06:29:51.149Z,1.20
2023-11-03T06:32:17.754Z,1.25
2023-11-03T06:34:44.848Z,1.57
2023-11-03T06:37:11.537Z,1.35
2023-11-03T06:39:38.604Z,1.40
2023-11-03T06:42:08.990Z,1.40
2023-11-03T06:44:36.273Z,1.05
2023-11-03T06:47:04.350Z,1.00
2023-11-03T06:49:30.993Z,1.00
2023-11-03T06:51:57.624Z,1.10
2023-11-03T06:54:24.859Z,0.90
2023-11-03T06:56:51.647Z,1.00
2023-11-03T06:59:18.204Z,0.87
2023-11-03T07:01:44.690Z,0.82
2023-11-03T07:04:11.257Z,0.90
2023-11-03T07:06:37.868Z,0.70
2023-11-03T07:09:05.896Z,1.00
2023-11-03T07:11:32.538Z,0.97
2023-11-03T07:13:59.976Z,0.68
2023-11-03T07:16:26.566Z,1.08
2023-11-03T07:18:53.546Z,0.77
2023-11-03T07:21:20.160Z,0.88
2023-11-03T07:23:47.394Z,0.70
2023-11-03T07:26:14.789Z,0.60
2023-11-03T07:28:43.773Z,0.90
2023-11-03T07:31:12.763Z,0.90
2023-11-03T07:33:41.336Z,1.00
2023-11-03T07:36:11.484Z,1.00
2023-11-03T07:38:38.448Z,1.20
2023-11-03T07:41:06.376Z,1.10
2023-11-03T07:43:32.906Z,0.90
2023-11-03T07:45:59.720Z,1.00
2023-11-03T07:48:26.501Z,1.20
2023-11-03T07:50:53.716Z,1.08
2023-11-03T07:53:20.303Z,1.10
2023-11-03T07:55:46.989Z,0.90
2023-11-03T07:58:14.977Z,1.00
2023-11-03T08:00:41.571Z,1.10
2023-11-03T08:03:08.876Z,1.42
2023-11-03T08:05:35.822Z,1.00
2023-11-03T08:08:03.134Z,1.17
2023-11-03T08:10:30.349Z,1.05
2023-11-03T08:12:58.518Z,1.17
2023-11-03T08:15:25.213Z,1.08
2023-11-03T08:17:51.894Z,0.85
2023-11-03T08:20:19.987Z,0.80
2023-11-03T08:22:49.378Z,0.77
2023-11-03T08:25:16.580Z,0.60
2023-11-03T08:27:43.193Z,0.80
2023-11-03T08:30:09.980Z,0.70
2023-11-03T08:32:37.413Z,0.88
2023-11-03T08:35:06.616Z,0.80
2023-11-03T08:37:34.113Z,0.70
2023-11-03T08:40:01.598Z,1.00
2023-11-03T08:42:28.479Z,0.73
2023-11-03T08:44:55.135Z,0.60
2023-11-03T08:47:21.869Z,0.70
2023-11-03T08:49:48.545Z,0.57
2023-11-03T08:52:15.136Z,0.60
2023-11-03T08:54:41.940Z,0.70
2023-11-03T08:57:09.764Z,0.60
2023-11-03T08:59:37.845Z,0.60
2023-11-03T09:02:05.362Z,0.40
2023-11-03T09:04:31.892Z,0.68
2023-11-03T09:06:58.479Z,0.63
2023-11-03T09:09:25.780Z,3.25
2023-11-03T09:11:52.531Z,1.17
2023-11-03T09:14:19.107Z,1.53
2023-11-03T09:16:45.657Z,1.00
2023-11-03T09:19:12.897Z,0.80
2023-11-03T09:21:39.684Z,1.08
2023-11-03T09:24:07.072Z,0.73
2023-11-03T09:26:34.336Z,0.93
2023-11-03T09:29:02.158Z,0.80
2023-11-03T09:31:29.552Z,0.60
2023-11-03T09:33:56.861Z,0.70
2023-11-03T09:36:23.793Z,0.85
2023-11-03T09:38:50.316Z,0.80
2023-11-03T09:41:17.111Z,0.90
2023-11-03T09:43:46.375Z,0.98
2023-11-03T09:46:13.959Z,9.80
2023-11-03T09:48:42.345Z,1.05
2023-11-03T09:51:09.627Z,0.63
2023-11-03T09:53:37.754Z,0.52
2023-11-03T09:56:06.434Z,0.88
2023-11-03T09:58:36.293Z,0.60
2023-11-03T10:01:05.838Z,0.60
2023-11-03T10:03:34.406Z,0.57
2023-11-03T10:06:04.213Z,1.00
2023-11-03T10:08:30.835Z,0.55
2023-11-03T10:10:58.851Z,0.77
2023-11-03T10:13:26.279Z,0.40
2023-11-03T10:15:52.898Z,0.70
2023-11-03T10:18:19.586Z,0.65
2023-11-03T10:20:47.517Z,0.93
2023-11-03T10:23:14.815Z,0.70
2023-11-03T10:25:41.460Z,0.40
2023-11-03T10:28:08.960Z,0.57
2023-11-03T10:30:37.050Z,0.50
2023-11-03T10:33:04.474Z,0.95
2023-11-03T10:35:31.938Z,0.73
2023-11-03T10:37:58.633Z,0.82
2023-11-03T10:40:25.971Z,0.70
2023-11-03T10:42:54.533Z,0.60
2023-11-03T10:45:22.375Z,0.45
2023-11-03T10:48:12.702Z,0.60
2023-11-03T10:50:49.491Z,0.68
2023-11-03T10:53:30.867Z,0.60
2023-11-03T10:56:22.312Z,0.60
2023-11-03T10:58:53.202Z,0.50
2023-11-03T11:01:30.355Z,0.50
2023-11-03T11:04:26.793Z,0.47
2023-11-03T11:07:04.899Z,0.50
2023-11-03T11:09:44.028Z,0.60
2023-11-03T11:12:11.532Z,0.45
2023-11-03T11:14:39.567Z,0.40
2023-11-03T11:17:24.523Z,0.50
2023-11-03T11:19:57.114Z,0.60
2023-11-03T11:22:27.979Z,0.75
2023-11-03T11:24:57.773Z,0.80
2023-11-03T11:27:26.049Z,0.60
2023-11-03T11:30:13.185Z,0.52
2023-11-03T11:32:39.841Z,0.50
2023-11-03T11:35:09.873Z,0.50
2023-11-03T11:37:37.238Z,0.50
2023-11-03T11:40:07.313Z,0.82
2023-11-03T11:42:39.129Z,0.75
2023-11-03T11:45:10.130Z,0.67
2023-11-03T11:47:38.837Z,0.47
2023-11-03T11:50:06.618Z,0.80
2023-11-03T11:52:36.963Z,0.50
2023-11-03T11:55:05.631Z,0.65
2023-11-03T11:57:33.707Z,0.50
2023-11-03T12:00:00.816Z,0.77
2023-11-03T12:02:27.465Z,0.57
2023-11-03T12:04:56.758Z,0.73
2023-11-03T12:07:26.268Z,0.65
2023-11-03T12:09:55.271Z,0.50
2023-11-03T12:12:22.796Z,0.60
2023-11-03T12:14:49.513Z,0.60
2023-11-03T12:17:17.557Z,0.68
2023-11-03T12:19:47.605Z,0.60
2023-11-03T12:22:21.244Z,0.60
2023-11-03T12:24:49.367Z,0.70
2023-11-03T12:27:17.965Z,0.57
2023-11-03T12:29:45.985Z,1.00
2023-11-03T12:32:13.672Z,0.70
2023-11-03T12:34:42.380Z,0.90
2023-11-03T12:37:10.426Z,2.53
2023-11-03T12:39:55.958Z,1.73
2023-11-03T12:42:27.462Z,1.20
2023-11-03T12:45:02.064Z,0.98
2023-11-03T12:47:46.249Z,0.67
2023-11-03T12:50:23.387Z,1.75
2023-11-03T12:53:04.399Z,1.08
2023-11-03T12:55:35.778Z,0.82
2023-11-03T12:58:09.915Z,0.70
2023-11-03T13:00:37.997Z,0.43
2023-11-03T13:03:05.367Z,0.80
2023-11-03T13:05:32.979Z,0.60
2023-11-03T13:08:02.144Z,0.60
2023-11-03T13:10:32.172Z,0.50
2023-11-03T13:12:59.104Z,0.50
2023-11-03T13:15:27.821Z,0.65
2023-11-03T13:17:54.590Z,0.50
2023-11-03T13:20:21.877Z,0.70
2023-11-03T13:22:50.732Z,0.40
2023-11-03T13:25:18.437Z,0.50
2023-11-03T13:27:45.358Z,0.60
2023-11-03T13:30:12.770Z,0.73
2023-11-03T13:32:42.779Z,0.47
2023-11-03T13:35:11.144Z,0.50
2023-11-03T13:37:41.920Z,0.47
2023-11-03T13:40:09.947Z,0.85
2023-11-03T13:42:36.985Z,0.60
2023-11-03T13:45:04.696Z,1.40
2023-11-03T13:47:31.759Z,0.50
2023-11-03T13:50:07.875Z,0.80
2023-11-03T13:52:41.814Z,0.70
2023-11-03T13:55:09.926Z,0.75
2023-11-03T13:57:37.312Z,0.70
2023-11-03T14:00:07.500Z,0.52
2023-11-03T14:02:34.112Z,0.90
2023-11-03T14:05:00.750Z,0.85
2023-11-03T14:07:27.325Z,1.00
2023-11-03T14:09:53.889Z,0.80
2023-11-03T14:12:22.159Z,0.70
2023-11-03T14:14:49.832Z,0.70
2023-11-03T14:17:16.497Z,0.60
2023-11-03T14:19:43.197Z,0.70
2023-11-03T14:22:10.987Z,0.57
2023-11-03T14:24:38.012Z,0.60
2023-11-03T14:27:06.682Z,0.50
2023-11-03T14:29:34.289Z,0.60
2023-11-03T14:32:01.293Z,0.50
2023-11-03T14:34:28.738Z,0.68
2023-11-03T14:36:55.521Z,0.60
2023-11-03T14:39:24.122Z,0.47
2023-11-03T14:41:50.669Z,0.70
2023-11-03T14:44:17.486Z,0.60
2023-11-03T14:46:50.345Z,0.50
2023-11-03T14:49:19.596Z,0.63
2023-11-03T14:51:46.949Z,0.70
2023-11-03T14:54:15.991Z,0.52
2023-11-03T14:56:44.844Z,0.60
2023-11-03T14:59:11.496Z,0.70
2023-11-03T15:01:38.862Z,0.80
2023-11-03T15:04:06.302Z,0.83
2023-11-03T15:06:33.952Z,1.00
2023-11-03T15:09:00.820Z,0.77
2023-11-03T15:11:27.792Z,1.00
2023-11-03T15:14:00.282Z,1.10
2023-11-03T15:16:30.481Z,1.00
2023-11-03T15:18:58.184Z,1.15
2023-11-03T15:21:24.859Z,1.10
2023-11-03T15:23:51.351Z,1.10
2023-11-03T15:26:18.827Z,1.30
2023-11-03T15:28:45.404Z,1.20
2023-11-03T15:31:12.088Z,1.20
2023-11-03T15:33:38.691Z,1.70
2023-11-03T15:36:07.416Z,2.00
2023-11-03T15:38:34.762Z,2.92
2023-11-03T15:41:01.996Z,3.37
2023-11-03T15:43:29.043Z,3.20
2023-11-03T15:45:55.790Z,5.18
2023-11-03T15:48:22.691Z,8.38
2023-11-03T15:50:51.255Z,10.32
2023-11-03T15:53:18.037Z,10.80
2023-11-03T15:55:49.257Z,9.90
2023-11-03T15:58:21.375Z,8.20
2023-11-03T16:00:55.310Z,6.07
2023-11-03T16:03:23.184Z,4.80
2023-11-03T16:05:51.021Z,3.90
2023-11-03T16:08:18.039Z,3.50
2023-11-03T16:10:45.555Z,3.92
2023-11-03T16:13:13.800Z,3.78
2023-11-03T16:15:41.729Z,3.80
2023-11-03T16:18:09.415Z,3.30
2023-11-03T16:20:36.985Z,3.55
2023-11-03T16:23:03.522Z,3.38
2023-11-03T16:25:30.130Z,3.53
2023-11-03T16:27:57.267Z,2.60
2023-11-03T16:30:23.978Z,3.17
2023-11-03T16:32:50.750Z,4.43
2023-11-03T16:35:17.555Z,3.72
2023-11-03T16:37:44.497Z,3.22
2023-11-03T16:40:12.460Z,3.35
2023-11-03T16:42:39.597Z,3.47
2023-11-03T16:45:10.526Z,4.07
2023-11-03T16:47:37.145Z,4.40
2023-11-03T16:50:05.157Z,4.10
2023-11-03T16:52:36.162Z,4.63
2023-11-03T16:55:03.067Z,4.40
2023-11-03T16:57:30.786Z,3.90
2023-11-03T16:59:57.345Z,4.38
2023-11-03T17:02:23.892Z,4.30
2023-11-03T17:04:51.253Z,4.35
2023-11-03T17:07:17.998Z,4.37
2023-11-03T17:09:44.579Z,4.60
2023-11-03T17:12:11.154Z,5.53
2023-11-03T17:14:37.786Z,5.07
2023-11-03T17:17:04.517Z,5.45
2023-11-03T17:19:31.568Z,5.30
2023-11-03T17:21:58.146Z,5.30
2023-11-03T17:24:24.744Z,5.93
2023-11-03T17:26:51.870Z,5.70
2023-11-03T17:29:19.586Z,5.82
2023-11-03T17:31:46.333Z,5.57
2023-11-03T17:34:12.906Z,5.32
2023-11-03T17:36:39.748Z,6.50
2023-11-03T17:39:10.209Z,6.15
2023-11-03T17:41:37.471Z,6.60
2023-11-03T17:44:04.269Z,6.83
2023-11-03T17:46:31.348Z,6.57
2023-11-03T17:48:57.908Z,6.55
2023-11-03T17:51:24.495Z,6.88
2023-11-03T17:53:51.082Z,6.70
2023-11-03T17:56:18.076Z,6.43
2023-11-03T17:58:45.562Z,6.32
2023-11-03T18:01:12.756Z,6.90
2023-11-03T18:03:39.495Z,6.95
2023-11-03T18:06:06.317Z,7.18
2023-11-03T18:08:33.114Z,7.47
2023-11-03T18:11:00.835Z,7.63
2023-11-03T18:13:27.460Z,7.82
2023-11-03T18:15:54.097Z,9.80
2023-11-03T18:18:22.274Z,9.82
2023-11-03T18:20:50.139Z,10.73
2023-11-03T18:23:16.924Z,9.75
2023-11-03T18:25:43.872Z,8.60
2023-11-03T18:28:12.388Z,7.25
2023-11-03T18:30:39.392Z,7.78
2023-11-03T18:33:06.524Z,7.93
2023-11-03T18:35:33.451Z,7.90
2023-11-03T18:38:00.561Z,7.47
2023-11-03T18:40:30.256Z,7.90
2023-11-03T18:42:58.125Z,7.40
2023-11-03T18:45:26.934Z,7.43
2023-11-03T18:47:53.977Z,7.35
2023-11-03T18:52:52.830Z,7.53
2023-11-03T18:56:14.150Z,6.85
2023-11-03T18:58:47.498Z,7.20
2023-11-03T19:02:08.876Z,7.50
2023-11-03T19:08:42.011Z,8.10
2023-11-03T19:11:08.870Z,8.50
2023-11-03T19:13:37.015Z,9.45
2023-11-03T19:16:03.921Z,9.70
2023-11-03T19:18:36.934Z,9.32
2023-11-03T19:21:05.076Z,9.77
2023-11-03T19:23:32.545Z,9.47
2023-11-03T19:25:59.379Z,10.15
2023-11-03T19:28:25.902Z,9.25
2023-11-03T19:30:52.691Z,7.28
2023-11-03T19:33:19.375Z,7.10
2023-11-03T19:35:50.153Z,6.17
2023-11-03T19:38:21.375Z,3.65
2023-11-03T19:40:48.425Z,3.22
2023-11-03T19:43:14.951Z,3.10
2023-11-03T19:45:41.583Z,3.92
2023-11-03T19:48:12.393Z,3.23
2023-11-03T19:50:39.397Z,2.90
2023-11-03T19:53:05.972Z,3.03
2023-11-03T19:55:34.311Z,3.00
2023-11-03T19:58:00.921Z,3.70
2023-11-03T20:00:30.494Z,3.60
2023-11-03T20:02:57.642Z,3.40
2023-11-03T20:05:25.142Z,2.70
2023-11-03T20:07:52.653Z,2.25
2023-11-03T20:10:19.666Z,2.35
2023-11-03T20:12:46.389Z,2.27
2023-11-03T20:15:13.095Z,2.40
2023-11-03T20:17:41.191Z,2.40
2023-11-03T20:20:10.128Z,2.40
2023-11-03T20:22:36.804Z,2.40
2023-11-03T20:25:03.789Z,2.37
2023-11-03T20:27:32.138Z,2.30
2023-11-03T20:30:00.269Z,2.78
2023-11-03T20:32:26.858Z,3.20
2023-11-03T20:34:53.668Z,2.95
2023-11-03T20:37:20.247Z,3.50
2023-11-03T20:39:47.208Z,3.33
2023-11-03T20:42:15.226Z,3.67
2023-11-03T20:44:42.772Z,3.65
2023-11-03T20:47:09.445Z,3.30
2023-11-03T20:49:36.402Z,3.63
2023-11-03T20:52:03.126Z,3.33
2023-11-03T20:54:30.678Z,3.53
2023-11-03T20:56:57.248Z,3.42
2023-11-03T20:59:24.250Z,3.33
2023-11-03T21:01:52.008Z,4.07
2023-11-03T21:04:20.549Z,3.22
2023-11-03T21:06:48.397Z,3.47
2023-11-03T21:09:16.010Z,3.60
2023-11-03T21:11:42.894Z,3.88
2023-11-03T21:14:10.069Z,4.20
2023-11-03T21:16:36.640Z,3.95
2023-11-03T21:19:04.057Z,5.40
2023-11-03T21:21:32.051Z,4.55
2023-11-03T21:23:58.733Z,4.15
2023-11-03T21:26:26.428Z,4.30
2023-11-03T21:28:52.944Z,4.07
2023-11-03T21:31:19.563Z,4.10
2023-11-03T21:33:49.185Z,4.20
2023-11-03T21:36:26.112Z,4.38
2023-11-03T21:38:53.629Z,4.83
2023-11-03T21:41:20.534Z,3.92
2023-11-03T21:43:47.929Z,4.57
2023-11-03T21:46:25.261Z,4.38
2023-11-03T21:48:53.226Z,3.83
2023-11-03T21:51:20.700Z,4.10
2023-11-03T21:53:47.329Z,4.15
2023-11-03T21:56:13.945Z,3.78
2023-11-03T21:58:41.460Z,4.10
2023-11-03T22:01:11.675Z,3.70
2023-11-03T22:03:38.652Z,3.23
2023-11-03T22:06:06.308Z,3.78
2023-11-03T22:08:32.944Z,3.17
2023-11-03T22:11:00.970Z,3.10
2023-11-03T22:13:27.565Z,2.55
2023-11-03T22:15:54.170Z,3.53
2023-11-03T22:18:21.359Z,2.08
2023-11-03T22:20:48.178Z,2.65
2023-11-03T22:23:15.034Z,2.00
2023-11-03T22:25:41.639Z,2.10
2023-11-03T22:28:08.450Z,1.90
2023-11-03T22:30:37.926Z,1.75
2023-11-03T22:33:04.751Z,2.10
2023-11-03T22:35:31.306Z,1.70
2023-11-03T22:37:57.936Z,1.60
2023-11-03T22:40:24.545Z,1.70
2023-11-03T22:42:51.151Z,1.50
2023-11-03T22:45:17.889Z,1.50
2023-11-03T22:47:45.025Z,1.50
2023-11-03T22:50:14.447Z,1.48
2023-11-03T22:52:42.490Z,1.77
2023-11-03T22:55:12.208Z,1.17
2023-11-03T22:57:39.012Z,1.48
2023-11-03T23:00:12.471Z,1.27
2023-11-03T23:02:42.981Z,1.25
2023-11-03T23:05:09.902Z,1.13
2023-11-03T23:07:36.536Z,1.33
2023-11-03T23:10:03.535Z,1.40
2023-11-03T23:12:30.842Z,1.75
2023-11-03T23:14:57.687Z,1.48
2023-11-03T23:17:24.269Z,1.27
2023-11-03T23:19:50.813Z,1.70
2023-11-03T23:22:17.452Z,1.20
2023-11-03T23:24:44.163Z,1.38
2023-11-03T23:27:10.716Z,1.45
2023-11-03T23:29:37.482Z,1.50
2023-11-03T23:32:04.198Z,1.60
2023-11-03T23:34:30.914Z,1.70
2023-11-03T23:36:57.552Z,1.75
2023-11-03T23:39:24.090Z,1.40
2023-11-03T23:41:50.668Z,1.50
2023-11-03T23:44:17.231Z,1.70
2023-11-03T23:46:43.752Z,1.63
2023-11-03T23:49:10.434Z,1.90
2023-11-03T23:51:37.314Z,1.13
2023-11-03T23:54:04.064Z,1.50
2023-11-03T23:56:30.651Z,1.30
2023-11-03T23:58:57.142Z,1.58
